Time;durP1;ratioP1;P1;durP2;ratioP2;P2;SDS_P1;SDS_P2;PMS_P1;PMS_P2;Temp;Humidity;BMP_temperature;BMP_pressure;BME280_temperature;BME280_humidity;BME280_pressure;Samples;Min_cycle;Max_cycle;Signal;HPM_P1;HPM_P2
2023/05/03 00:02:17;;;;;;;4.40;2.50;;;;;;;10.78;66.88;101365.92;104542;1267;98048;-77
2023/05/03 00:05:04;;;;;;;5.50;2.80;;;;;;;10.76;66.84;101361.55;104573;1267;102618;-79
2023/05/03 00:07:49;;;;;;;6.80;2.60;;;;;;;10.72;66.61;101358.05;104559;1268;99102;-78
2023/05/03 00:10:34;;;;;;;7.10;2.70;;;;;;;10.69;66.53;101364.08;104513;1270;106381;-77
2023/05/03 00:13:20;;;;;;;6.00;2.80;;;;;;;10.64;66.40;101366.27;104517;1270;97972;-79
2023/05/03 00:16:06;;;;;;;8.50;2.70;;;;;;;10.58;66.27;101370.71;104512;1267;99090;-79
2023/05/03 00:18:51;;;;;;;9.50;3.10;;;;;;;10.53;66.58;101373.56;104847;1271;101495;-80
2023/05/03 00:21:37;;;;;;;6.80;2.60;;;;;;;10.47;66.51;101377.78;104756;1269;99183;-79
2023/05/03 00:24:22;;;;;;;10.70;4.30;;;;;;;10.41;66.48;101380.79;104787;1282;98644;-79
2023/05/03 00:27:07;;;;;;;6.70;2.40;;;;;;;10.37;66.65;101386.04;104759;1273;97960;-79
2023/05/03 00:29:53;;;;;;;4.80;2.70;;;;;;;10.35;66.72;101389.73;104562;1269;98394;-77
2023/05/03 00:32:38;;;;;;;4.80;3.00;;;;;;;10.33;66.85;101397.62;104522;1269;102667;-77
2023/05/03 00:35:26;;;;;;;3.10;2.50;;;;;;;10.31;66.71;101398.20;104494;1271;100334;-77
2023/05/03 00:38:13;;;;;;;4.00;2.60;;;;;;;10.29;66.67;101399.92;104472;1268;97996;-78
2023/05/03 00:40:58;;;;;;;5.10;3.00;;;;;;;10.28;66.52;101400.56;104543;1270;97941;-78
2023/05/03 00:43:44;;;;;;;5.10;2.30;;;;;;;10.27;66.83;101404.44;104557;1284;97830;-77
2023/05/03 00:46:30;;;;;;;6.20;2.60;;;;;;;10.29;66.65;101404.77;104503;1268;102912;-80
2023/05/03 00:49:15;;;;;;;6.90;2.50;;;;;;;10.30;66.59;101408.93;104504;1269;99244;-77
2023/05/03 00:52:01;;;;;;;7.00;2.50;;;;;;;10.30;66.71;101413.31;104495;1271;99497;-77
2023/05/03 00:54:47;;;;;;;7.40;2.70;;;;;;;10.29;66.70;101414.85;104502;1269;98552;-80
2023/05/03 00:57:33;;;;;;;8.10;2.60;;;;;;;10.27;66.67;101415.38;104569;1271;98553;-81
2023/05/03 01:00:19;;;;;;;6.80;3.10;;;;;;;10.26;66.75;101417.63;104490;1271;102636;-78
2023/05/03 01:03:05;;;;;;;8.00;2.40;;;;;;;10.25;66.88;101422.71;104720;1269;99103;-79
2023/05/03 01:06:05;;;;;;;6.30;2.60;;;;;;;10.20;67.12;101421.64;104655;1271;99666;-79
2023/05/03 01:09:20;;;;;;;4.60;2.70;;;;;;;10.16;67.48;101425.34;105277;1268;97989;-78
2023/05/03 01:12:11;;;;;;;8.70;3.30;;;;;;;10.10;67.75;101420.88;104587;1268;99234;-78
2023/05/03 01:15:15;;;;;;;7.70;3.20;;;;;;;10.06;68.14;101416.27;104438;1273;101362;-79
2023/05/03 01:18:14;;;;;;;6.40;3.30;;;;;;;10.02;68.30;101417.15;104560;1270;99088;-81
2023/05/03 01:21:01;;;;;;;12.30;3.10;;;;;;;9.99;68.43;101412.45;104537;1271;99335;-80
2023/05/03 01:24:00;;;;;;;7.10;3.80;;;;;;;9.97;68.70;101417.43;104770;1284;97991;-80
2023/05/03 01:26:45;;;;;;;5.90;3.30;;;;;;;9.95;68.88;101418.02;104932;1267;97885;-79
2023/05/03 01:29:31;;;;;;;5.20;3.00;;;;;;;9.94;68.97;101417.86;104801;1269;102698;-81
2023/05/03 01:32:24;;;;;;;5.50;3.00;;;;;;;9.94;69.11;101419.62;104833;1267;100375;-79
2023/05/03 01:35:19;;;;;;;10.00;3.60;;;;;;;9.94;69.19;101422.80;104662;1271;97976;-79
2023/05/03 01:38:07;;;;;;;6.30;3.30;;;;;;;9.93;69.34;101427.42;104581;1270;98005;-77
2023/05/03 01:40:56;;;;;;;6.00;3.30;;;;;;;9.90;69.67;101431.48;104477;1267;97956;-79
2023/05/03 01:43:43;;;;;;;7.40;3.50;;;;;;;9.88;70.02;101432.18;104515;1268;101350;-78
2023/05/03 01:46:28;;;;;;;6.90;3.40;;;;;;;9.85;70.04;101431.44;104466;1268;100318;-79
2023/05/03 01:49:14;;;;;;;5.60;2.80;;;;;;;9.78;70.31;101424.52;104531;1270;99298;-77
2023/05/03 01:52:00;;;;;;;7.10;3.20;;;;;;;9.74;70.52;101419.95;104487;1271;97992;-79
2023/05/03 01:54:45;;;;;;;9.30;3.90;;;;;;;9.73;70.92;101432.03;104526;1268;98434;-77
2023/05/03 01:57:31;;;;;;;5.50;3.60;;;;;;;9.75;71.25;101445.92;104539;1271;102537;-80
2023/05/03 02:00:17;;;;;;;5.40;3.50;;;;;;;9.74;71.40;101443.67;104792;1267;100507;-78
2023/05/03 02:03:03;;;;;;;7.90;3.70;;;;;;;9.73;71.63;101443.93;104865;1269;97811;-79
2023/05/03 02:05:48;;;;;;;6.80;3.90;;;;;;;9.74;71.80;101441.60;104782;1267;98001;-80
2023/05/03 02:08:34;;;;;;;9.50;3.50;;;;;;;9.73;72.03;101438.33;104881;1268;98512;-79
2023/05/03 02:11:20;;;;;;;8.80;3.90;;;;;;;9.69;72.05;101432.27;104728;1268;101386;-78
2023/05/03 02:14:06;;;;;;;5.70;3.60;;;;;;;9.66;72.28;101428.46;104835;1290;99093;-77
2023/05/03 02:16:54;;;;;;;9.40;3.80;;;;;;;9.67;72.65;101422.34;104844;1268;99050;-80
2023/05/03 02:19:40;;;;;;;7.50;3.80;;;;;;;9.66;72.74;101422.66;104508;1268;98076;-78
2023/05/03 02:22:25;;;;;;;7.40;3.80;;;;;;;9.63;72.52;101424.36;104573;1271;97969;-78
2023/05/03 02:25:13;;;;;;;8.10;3.30;;;;;;;9.63;72.63;101420.11;104804;1268;102607;-77
2023/05/03 02:27:58;;;;;;;7.40;3.60;;;;;;;9.66;73.07;101420.90;104660;1268;99106;-80
2023/05/03 02:30:44;;;;;;;6.90;3.80;;;;;;;9.68;72.94;101424.75;104557;1268;98945;-77
2023/05/03 02:33:29;;;;;;;7.30;3.70;;;;;;;9.69;73.10;101434.75;104480;1267;98012;-79
2023/05/03 02:36:15;;;;;;;11.60;4.10;;;;;;;9.70;73.15;101436.42;104510;1270;98002;-79
2023/05/03 02:39:02;;;;;;;6.70;3.20;;;;;;;9.72;73.27;101432.32;104729;1268;101348;-77
2023/05/03 02:41:48;;;;;;;6.70;3.70;;;;;;;9.74;73.45;101429.27;104496;1267;100124;-76
2023/05/03 02:44:34;;;;;;;5.80;3.70;;;;;;;9.75;73.42;101431.67;104504;1271;99386;-77
2023/05/03 02:47:20;;;;;;;8.40;3.70;;;;;;;9.74;73.36;101437.65;104521;1269;98580;-79
2023/05/03 02:50:06;;;;;;;9.00;3.70;;;;;;;9.73;73.45;101440.45;104569;1268;98508;-81
2023/05/03 02:52:52;;;;;;;8.00;4.20;;;;;;;9.72;73.68;101437.02;104469;1271;102597;-78
2023/05/03 02:55:38;;;;;;;8.30;3.50;;;;;;;9.72;73.74;101440.77;104548;1270;99110;-78
2023/05/03 02:58:23;;;;;;;8.90;3.80;;;;;;;9.71;73.73;101448.81;104560;1271;98653;-79
2023/05/03 03:01:10;;;;;;;12.00;3.70;;;;;;;9.68;74.03;101452.07;104566;1271;98002;-79
2023/05/03 03:03:55;;;;;;;10.60;5.60;;;;;;;9.63;74.15;101452.75;104617;1271;98598;-76
2023/05/03 03:06:41;;;;;;;6.20;3.80;;;;;;;9.61;74.44;101452.39;104457;1271;102400;-79
2023/05/03 03:09:27;;;;;;;7.90;3.90;;;;;;;9.58;74.49;101456.07;104542;1266;100614;-79
2023/05/03 03:12:13;;;;;;;7.40;3.70;;;;;;;9.56;74.74;101457.59;104577;1270;98815;-78
2023/05/03 03:14:59;;;;;;;15.40;6.80;;;;;;;9.55;75.11;101462.67;104507;1268;98188;-79
2023/05/03 03:17:45;;;;;;;7.60;4.40;;;;;;;9.56;75.37;101465.58;104563;1271;99320;-78
2023/05/03 03:20:31;;;;;;;7.70;4.20;;;;;;;9.58;75.37;101467.70;104525;1267;102645;-77
2023/05/03 03:23:16;;;;;;;8.20;3.50;;;;;;;9.58;75.49;101470.68;104560;1267;100476;-78
2023/05/03 03:26:02;;;;;;;7.10;4.40;;;;;;;9.58;75.83;101473.83;104443;1268;99016;-77
2023/05/03 03:28:48;;;;;;;5.80;3.70;;;;;;;9.54;75.88;101475.10;104573;1271;98863;-77
2023/05/03 03:31:34;;;;;;;6.90;3.80;;;;;;;9.52;75.90;101476.88;104431;1268;98870;-77
2023/05/03 03:34:20;;;;;;;7.70;4.10;;;;;;;9.52;76.09;101483.27;104619;1271;101402;-77
2023/05/03 03:37:06;;;;;;;6.80;3.60;;;;;;;9.50;76.20;101482.84;104526;1271;99095;-79
2023/05/03 03:39:52;;;;;;;10.00;4.20;;;;;;;9.44;76.20;101486.34;104420;1266;148822;-77
2023/05/03 03:42:39;;;;;;;7.30;3.70;;;;;;;9.40;76.34;101491.04;104541;1270;98959;-79
2023/05/03 03:45:25;;;;;;;7.40;3.80;;;;;;;9.39;76.51;101491.79;104702;1272;98406;-77
2023/05/03 03:48:10;;;;;;;9.20;4.60;;;;;;;9.39;76.79;101493.92;104555;1271;102627;-78
2023/05/03 03:50:57;;;;;;;11.00;4.30;;;;;;;9.38;76.88;101495.95;104675;1268;99063;-77
2023/05/03 03:53:44;;;;;;;5.40;3.80;;;;;;;9.38;76.98;101494.78;104490;1271;98271;-79
2023/05/03 03:56:29;;;;;;;6.80;4.10;;;;;;;9.39;77.06;101498.37;104500;1271;97978;-80
2023/05/03 03:59:15;;;;;;;10.00;4.30;;;;;;;9.42;77.30;101501.63;104525;1271;98042;-78
2023/05/03 04:02:01;;;;;;;8.40;4.10;;;;;;;9.44;77.46;101501.39;104609;1268;102601;-79
2023/05/03 04:04:46;;;;;;;7.30;4.00;;;;;;;9.43;77.45;101506.19;104694;1271;99202;-77
2023/05/03 04:07:32;;;;;;;6.70;3.80;;;;;;;9.42;77.26;101509.48;104460;1268;98998;-77
2023/05/03 04:10:18;;;;;;;12.00;4.80;;;;;;;9.39;77.19;101509.30;104533;1271;99422;-78
2023/05/03 04:13:03;;;;;;;8.30;3.70;;;;;;;9.38;77.22;101515.27;104526;1271;98515;-77
2023/05/03 04:15:52;;;;;;;7.30;4.40;;;;;;;9.38;77.24;101517.08;104570;1271;101364;-79
2023/05/03 04:18:38;;;;;;;5.70;3.50;;;;;;;9.40;77.51;101516.83;104544;1269;100098;-78
2023/05/03 04:21:27;;;;;;;6.90;3.60;;;;;;;9.43;77.09;101518.65;104403;1271;98065;-80
2023/05/03 04:24:15;;;;;;;7.30;3.50;;;;;;;9.44;77.11;101516.75;104636;1271;98010;-79
2023/05/03 04:27:03;;;;;;;5.00;2.70;;;;;;;9.44;76.66;101518.02;105397;1267;97948;-80
2023/05/03 04:29:49;;;;;;;4.40;3.00;;;;;;;9.42;76.12;101525.88;104598;1270;102107;-79
2023/05/03 04:32:36;;;;;;;5.00;2.80;;;;;;;9.40;75.65;101532.04;104518;1268;99129;-80
2023/05/03 04:35:25;;;;;;;4.90;2.90;;;;;;;9.37;75.34;101537.33;104594;1266;97926;-78
2023/05/03 04:38:11;;;;;;;4.80;3.00;;;;;;;9.35;75.53;101541.73;104767;1272;97980;-80
2023/05/03 04:40:57;;;;;;;5.40;2.90;;;;;;;9.38;75.53;101544.90;104824;1267;97894;-78
2023/05/03 04:43:43;;;;;;;5.40;3.50;;;;;;;9.39;75.37;101543.29;104554;1268;102667;-79
2023/05/03 04:46:28;;;;;;;5.60;3.60;;;;;;;9.42;75.21;101548.89;104553;1267;100591;-79
2023/05/03 04:49:15;;;;;;;4.90;3.50;;;;;;;9.46;74.85;101553.11;104584;1271;98543;-79
2023/05/03 04:52:01;;;;;;;5.30;3.50;;;;;;;9.49;74.33;101554.80;104579;1268;97974;-79
2023/05/03 04:54:46;;;;;;;5.30;3.60;;;;;;;9.48;74.24;101556.70;104555;1267;98434;-79
2023/05/03 04:57:33;;;;;;;7.20;3.60;;;;;;;9.47;74.26;101557.50;104619;1271;101392;-79
2023/05/03 05:00:20;;;;;;;11.10;4.10;;;;;;;9.45;73.84;101562.32;104699;1267;100282;-79
2023/05/03 05:03:10;;;;;;;7.10;3.70;;;;;;;9.43;73.83;101561.11;104759;1268;98188;-80
2023/05/03 05:05:56;;;;;;;9.80;3.50;;;;;;;9.47;74.29;101558.93;104713;1268;97940;-78
2023/05/03 05:08:42;;;;;;;5.20;3.50;;;;;;;9.49;74.15;101558.17;104867;1268;98600;-79
2023/05/03 05:11:30;;;;;;;5.70;3.40;;;;;;;9.45;73.51;101562.15;104861;1268;101343;-79
2023/05/03 05:14:17;;;;;;;7.70;3.80;;;;;;;9.44;73.86;101563.85;104803;1271;100021;-78
2023/05/03 05:17:02;;;;;;;9.30;4.40;;;;;;;9.47;73.93;101565.32;104796;1271;98664;-79
2023/05/03 05:19:48;;;;;;;12.60;5.20;;;;;;;9.52;73.77;101566.02;104761;1271;98008;-80
2023/05/03 05:22:33;;;;;;;4.60;3.80;;;;;;;9.53;73.18;101565.93;104598;1270;98435;-79
2023/05/03 05:25:20;;;;;;;7.80;3.70;;;;;;;9.55;72.53;101566.27;104771;1270;101358;-80
2023/05/03 05:28:06;;;;;;;7.60;4.30;;;;;;;9.60;72.94;101568.77;104473;1267;108159;-77
2023/05/03 05:30:53;;;;;;;8.50;4.30;;;;;;;9.69;72.98;101571.92;104578;1273;98498;-80
2023/05/03 05:33:39;;;;;;;5.70;3.80;;;;;;;9.78;72.73;101574.16;104619;1270;98003;-81
2023/05/03 05:36:27;;;;;;;9.50;4.70;;;;;;;9.90;72.56;101579.58;104820;1268;99645;-78
2023/05/03 05:39:12;;;;;;;9.30;3.90;;;;;;;9.96;71.90;101577.81;104653;1267;101358;-77
2023/05/03 05:41:58;;;;;;;6.50;3.30;;;;;;;10.02;72.05;101580.18;104825;1271;99181;-79
2023/05/03 05:44:44;;;;;;;7.50;3.00;;;;;;;10.13;71.34;101576.41;104653;1267;98450;-77
2023/05/03 05:47:31;;;;;;;8.30;3.90;;;;;;;10.23;69.79;101584.14;104477;1267;97903;-78
2023/05/03 05:50:17;;;;;;;4.60;3.00;;;;;;;10.31;68.92;101590.84;104498;1270;98592;-77
2023/05/03 05:53:03;;;;;;;5.10;2.70;;;;;;;10.40;68.46;101590.77;104505;1267;101400;-78
2023/05/03 05:55:52;;;;;;;4.20;2.80;;;;;;;10.49;68.02;101597.73;104675;1271;99420;-78
2023/05/03 05:58:38;;;;;;;8.50;3.00;;;;;;;10.60;67.24;101597.00;104474;1271;99540;-79
2023/05/03 06:01:25;;;;;;;3.70;2.30;;;;;;;10.70;66.67;101602.25;104488;1271;98053;-77
2023/05/03 06:04:12;;;;;;;4.70;2.90;;;;;;;10.77;65.80;101602.27;104478;1270;97962;-79
2023/05/03 06:06:58;;;;;;;5.90;3.60;;;;;;;10.84;65.58;101604.16;104631;1271;111404;-79
2023/05/03 06:09:44;;;;;;;5.00;3.00;;;;;;;10.92;65.15;101606.56;105149;1268;99902;-77
2023/05/03 06:12:31;;;;;;;5.40;2.90;;;;;;;11.00;65.20;101608.23;104446;1269;98058;-78
2023/05/03 06:15:17;;;;;;;6.40;2.80;;;;;;;11.06;64.95;101609.88;104905;1271;97978;-81
2023/05/03 06:18:03;;;;;;;4.90;2.40;;;;;;;11.14;64.38;101613.41;105339;1270;99624;-83
2023/05/03 06:20:50;;;;;;;4.90;2.30;;;;;;;11.22;63.01;101619.15;105451;1271;102524;-85
2023/05/03 06:23:38;;;;;;;3.40;2.30;;;;;;;11.24;61.80;101619.82;105153;1267;99098;-83
2023/05/03 06:26:26;;;;;;;5.20;3.00;;;;;;;11.30;61.43;101619.45;105503;1268;99114;-80
2023/05/03 06:29:12;;;;;;;3.40;2.10;;;;;;;11.40;61.48;101620.02;105365;1268;98673;-82
2023/05/03 06:31:58;;;;;;;6.20;2.60;;;;;;;11.41;60.90;101623.15;105495;1268;97943;-86
2023/05/03 06:34:45;;;;;;;7.10;3.40;;;;;;;11.39;61.26;101631.33;105232;1271;102108;-83
2023/05/03 06:37:31;;;;;;;4.90;3.20;;;;;;;11.33;61.37;101633.10;105504;1269;99110;-82
2023/05/03 06:40:16;;;;;;;10.40;3.40;;;;;;;11.28;61.63;101631.69;105484;1268;98074;-76
2023/05/03 06:43:03;;;;;;;5.10;3.20;;;;;;;11.23;61.68;101631.02;104871;1267;98003;-82
2023/05/03 06:45:57;;;;;;;4.10;2.90;;;;;;;11.26;62.04;101636.59;105681;1271;97959;-82
2023/05/03 06:48:43;;;;;;;7.60;3.60;;;;;;;11.35;63.07;101640.42;105415;1273;101399;-84
2023/05/03 06:51:31;;;;;;;8.10;4.00;;;;;;;11.39;63.15;101640.19;105324;1271;99186;-84
2023/05/03 06:54:18;;;;;;;6.10;3.10;;;;;;;11.40;62.81;101644.11;105389;1267;97962;-80
2023/05/03 06:57:04;;;;;;;7.90;3.60;;;;;;;11.52;63.31;101640.29;104965;1268;98019;-80
2023/05/03 06:59:50;;;;;;;4.20;3.20;;;;;;;11.67;62.69;101640.48;104916;1271;98490;-79
2023/05/03 07:02:36;;;;;;;6.80;3.90;;;;;;;11.79;62.54;101637.37;104853;1271;102340;-78
2023/05/03 07:05:21;;;;;;;10.40;4.20;;;;;;;11.95;62.07;101640.59;105617;1271;100387;-82
2023/05/03 07:08:07;;;;;;;7.10;3.10;;;;;;;12.02;61.66;101634.00;105600;1271;99076;-82
2023/05/03 07:10:52;;;;;;;3.00;2.20;;;;;;;12.08;60.24;101639.42;105405;1271;97980;-82
2023/05/03 07:13:38;;;;;;;6.50;3.50;;;;;;;12.05;58.88;101644.61;104868;1268;97920;-81
2023/05/03 07:16:24;;;;;;;4.20;2.60;;;;;;;11.98;58.76;101641.80;104986;1268;101423;-78
2023/05/03 07:19:09;;;;;;;5.20;2.10;;;;;;;12.02;58.90;101641.92;104939;1269;99118;-79
2023/05/03 07:21:55;;;;;;;5.00;2.10;;;;;;;12.01;57.75;101641.48;105130;1268;99095;-80
2023/05/03 07:24:40;;;;;;;4.10;2.40;;;;;;;11.93;57.21;101647.55;104664;1271;98958;-77
2023/05/03 07:27:26;;;;;;;5.50;3.00;;;;;;;11.94;56.35;101647.17;104850;1269;97886;-79
2023/05/03 07:30:28;;;;;;;3.80;2.70;;;;;;;11.93;56.66;101647.45;105405;1271;102087;-79
2023/05/03 07:33:13;;;;;;;5.80;1.90;;;;;;;12.00;56.30;101640.48;104739;1271;108340;-79
2023/05/03 07:35:59;;;;;;;3.40;1.70;;;;;;;12.12;56.52;101640.96;104747;1271;98059;-79
2023/05/03 07:38:45;;;;;;;7.00;2.40;;;;;;;12.21;55.50;101637.41;104791;1269;99250;-78
2023/05/03 07:41:30;;;;;;;2.90;1.60;;;;;;;12.21;54.47;101639.02;104787;1271;98500;-79
2023/05/03 07:44:16;;;;;;;3.10;1.70;;;;;;;12.20;54.42;101640.23;104840;1271;101346;-82
2023/05/03 07:47:01;;;;;;;2.70;1.40;;;;;;;12.31;54.72;101642.23;104794;1272;99174;-79
2023/05/03 07:49:49;;;;;;;1.60;1.20;;;;;;;12.46;54.77;101641.43;104901;1279;98521;-81
2023/05/03 07:52:36;;;;;;;2.20;1.20;;;;;;;12.53;53.59;101642.01;105168;1269;97973;-81
2023/05/03 07:55:23;;;;;;;2.30;1.60;;;;;;;12.54;52.08;101640.90;105471;1268;98013;-82
2023/05/03 07:58:08;;;;;;;2.20;1.80;;;;;;;12.48;51.89;101645.11;105013;1268;101900;-83
2023/05/03 08:00:54;;;;;;;4.20;1.30;;;;;;;12.48;51.72;101642.30;104798;1268;99201;-81
2023/05/03 08:03:40;;;;;;;2.30;1.50;;;;;;;12.52;51.66;101643.95;104763;1268;99045;-81
2023/05/03 08:06:26;;;;;;;2.60;1.40;;;;;;;12.49;51.11;101641.96;105437;1269;97984;-81
2023/05/03 08:09:12;;;;;;;3.40;1.70;;;;;;;12.49;51.39;101640.14;105589;1268;97872;-81
2023/05/03 08:11:58;;;;;;;2.20;1.80;;;;;;;12.57;51.31;101643.41;105637;1271;103312;-81
2023/05/03 08:14:44;;;;;;;1.70;1.20;;;;;;;12.61;50.74;101641.43;105497;1271;99916;-80
2023/05/03 08:17:29;;;;;;;3.50;1.50;;;;;;;12.63;50.40;101639.95;104952;1271;99138;-78
2023/05/03 08:20:15;;;;;;;2.20;1.60;;;;;;;12.66;49.90;101641.78;105234;1268;99240;-80
2023/05/03 08:23:01;;;;;;;3.20;1.30;;;;;;;12.64;49.40;101646.27;104958;1271;98967;-79
2023/05/03 08:25:47;;;;;;;2.60;1.10;;;;;;;12.62;48.97;101646.00;104980;1273;101342;-80
2023/05/03 08:28:34;;;;;;;4.80;1.70;;;;;;;12.68;49.84;101646.21;105437;1268;99114;-79
2023/05/03 08:31:19;;;;;;;7.30;2.50;;;;;;;12.78;49.49;101657.92;104619;1271;98466;-80
2023/05/03 08:34:06;;;;;;;3.30;1.60;;;;;;;12.83;48.92;101658.56;104511;1271;97881;-77
2023/05/03 08:36:52;;;;;;;4.30;2.30;;;;;;;12.78;48.07;101659.70;104661;1271;98479;-80
2023/05/03 08:39:37;;;;;;;4.30;1.70;;;;;;;12.80;48.52;101661.27;105076;1268;101386;-79
2023/05/03 08:42:23;;;;;;;1.70;1.60;;;;;;;12.88;48.32;101664.27;104936;1270;99113;-80
2023/05/03 08:45:12;;;;;;;4.10;1.90;;;;;;;12.95;48.71;101664.56;104863;1271;98446;-79
2023/05/03 08:48:00;;;;;;;4.30;1.70;;;;;;;13.08;49.04;101661.63;104871;1271;97900;-78
2023/05/03 08:50:47;;;;;;;2.80;1.70;;;;;;;13.03;48.36;101665.61;104856;1271;98568;-78
2023/05/03 08:53:33;;;;;;;3.00;1.80;;;;;;;12.78;47.50;101663.02;105007;1271;102913;-79
2023/05/03 08:56:32;;;;;;;1.90;1.60;;;;;;;12.60;48.07;101669.35;104739;1271;100383;-77
2023/05/03 08:59:18;;;;;;;3.10;1.60;;;;;;;12.61;47.89;101670.50;104660;1268;99013;-78
2023/05/03 09:02:03;;;;;;;3.80;1.60;;;;;;;12.70;48.19;101665.29;104560;1268;97973;-78
2023/05/03 09:04:49;;;;;;;2.90;1.30;;;;;;;12.84;48.17;101661.20;104790;1269;98502;-78
2023/05/03 09:07:35;;;;;;;2.10;1.50;;;;;;;12.95;47.74;101661.30;104623;1269;101460;-77
2023/05/03 09:10:23;;;;;;;1.90;1.60;;;;;;;12.97;47.07;101664.89;104844;1271;99108;-79
2023/05/03 09:13:09;;;;;;;3.80;1.70;;;;;;;12.84;47.23;101665.83;104731;1271;98763;-77
2023/05/03 09:15:56;;;;;;;2.60;1.30;;;;;;;12.74;47.41;101668.46;104621;1271;97902;-78
2023/05/03 09:18:55;;;;;;;2.50;1.30;;;;;;;12.71;47.24;101666.70;104713;1271;98857;-78
2023/05/03 09:21:42;;;;;;;2.90;1.50;;;;;;;12.77;47.46;101664.45;104614;1271;101411;-80
2023/05/03 09:24:28;;;;;;;1.40;1.20;;;;;;;12.79;47.03;101660.89;105266;1269;99240;-78
2023/05/03 09:27:20;;;;;;;3.30;1.60;;;;;;;12.78;46.98;101667.04;105364;1271;99147;-79
2023/05/03 09:30:18;;;;;;;2.80;1.40;;;;;;;12.70;46.95;101669.05;104508;1269;99181;-77
2023/05/03 09:33:03;;;;;;;4.40;1.60;;;;;;;12.70;47.45;101664.59;104693;1271;97985;-80
2023/05/03 09:35:59;;;;;;;3.90;1.40;;;;;;;12.83;47.11;101663.86;105551;1266;101395;-79
2023/05/03 09:38:45;;;;;;;3.10;1.50;;;;;;;12.95;47.33;101665.14;105510;1268;100793;-75
2023/05/03 09:41:30;;;;;;;3.10;1.10;;;;;;;13.02;47.02;101670.71;105161;1266;97915;-82
2023/05/03 09:44:16;;;;;;;1.90;1.20;;;;;;;13.01;46.77;101668.86;105651;1265;98010;-82
2023/05/03 09:47:06;;;;;;;4.80;1.20;;;;;;;12.96;46.50;101669.10;105548;1265;98468;-80
2023/05/03 09:49:51;;;;;;;2.70;1.50;;;;;;;12.93;46.02;101669.69;105662;1266;109888;-81
2023/05/03 09:52:39;;;;;;;3.70;1.40;;;;;;;12.90;45.95;101666.75;105648;1268;100413;-81
2023/05/03 09:55:25;;;;;;;3.00;1.20;;;;;;;12.94;46.31;101666.25;105602;1273;98994;-79
2023/05/03 09:58:11;;;;;;;4.70;1.70;;;;;;;13.07;47.22;101663.52;105136;1268;97979;-78
2023/05/03 10:00:57;;;;;;;4.80;1.20;;;;;;;13.29;47.57;101661.54;104929;1267;98592;-78
2023/05/03 10:03:47;;;;;;;3.40;1.40;;;;;;;13.51;47.81;101657.13;104860;1268;101456;-79
2023/05/03 10:06:37;;;;;;;6.90;2.00;;;;;;;13.69;47.75;101660.48;104947;1274;99892;-78
2023/05/03 10:09:29;;;;;;;3.60;1.40;;;;;;;13.72;46.94;101676.65;104884;1271;99099;-78
2023/05/03 10:12:17;;;;;;;2.40;1.30;;;;;;;13.57;45.84;101678.79;104717;1268;98635;-78
2023/05/03 10:15:06;;;;;;;2.80;1.50;;;;;;;13.48;46.30;101673.95;104726;1266;98390;-78
2023/05/03 10:17:55;;;;;;;5.90;1.70;;;;;;;13.59;45.93;101673.20;104813;1267;102240;-77
2023/05/03 10:20:49;;;;;;;4.60;1.60;;;;;;;13.69;45.67;101666.95;104901;1267;99256;-78
2023/05/03 10:23:34;;;;;;;1.80;1.20;;;;;;;13.66;45.41;101665.53;104893;1270;97973;-80
2023/05/03 10:26:21;;;;;;;7.80;1.30;;;;;;;13.58;45.29;101669.90;105118;1266;98823;-79
2023/05/03 10:29:45;;;;;;;2.40;1.40;;;;;;;13.47;44.88;101669.61;105045;1271;97880;-79
2023/05/03 10:32:41;;;;;;;2.70;1.20;;;;;;;13.33;45.58;101666.98;105098;1269;102643;-81
2023/05/03 10:35:28;;;;;;;3.00;1.10;;;;;;;13.28;46.01;101666.81;105707;1271;99269;-80
2023/05/03 10:38:15;;;;;;;3.90;1.50;;;;;;;13.32;45.82;101664.17;105085;1266;107653;-82
2023/05/03 10:41:02;;;;;;;3.80;1.70;;;;;;;13.41;45.62;101668.59;105642;1271;99250;-80
2023/05/03 10:43:48;;;;;;;2.00;1.50;;;;;;;13.49;45.55;101671.17;105643;1266;98315;-80
2023/05/03 10:46:33;;;;;;;2.40;1.50;;;;;;;13.57;45.33;101664.81;105095;1270;102123;-81
2023/05/03 10:49:21;;;;;;;4.00;1.50;;;;;;;13.68;45.16;101666.04;105737;1268;99846;-79
2023/05/03 10:52:34;;;;;;;3.00;1.60;;;;;;;13.82;44.78;101661.32;105611;1272;97918;-78
2023/05/03 10:55:23;;;;;;;3.60;1.80;;;;;;;14.00;45.50;101654.41;105582;1269;97957;-79
2023/05/03 10:58:13;;;;;;;2.60;1.80;;;;;;;14.15;45.47;101651.36;105433;1270;99130;-81
2023/05/03 11:00:59;;;;;;;4.60;1.50;;;;;;;14.26;45.64;101651.33;105799;1268;102965;-78
2023/05/03 11:03:56;;;;;;;3.90;2.20;;;;;;;14.24;44.99;101662.11;104717;1268;99121;-76
2023/05/03 11:06:41;;;;;;;1.50;1.40;;;;;;;14.04;44.35;101669.39;104884;1266;98216;-78
2023/05/03 11:09:32;;;;;;;2.90;1.40;;;;;;;13.87;44.93;101667.34;104858;1274;98131;-80
2023/05/03 11:12:17;;;;;;;6.50;1.60;;;;;;;13.90;45.59;101665.99;104863;1266;97983;-79
2023/05/03 11:15:03;;;;;;;3.40;2.10;;;;;;;13.97;44.83;101666.46;104758;1269;101408;-79
2023/05/03 11:17:48;;;;;;;4.00;1.50;;;;;;;13.97;44.49;101661.08;104789;1266;99201;-77
2023/05/03 11:20:35;;;;;;;3.70;1.70;;;;;;;13.95;44.36;101666.17;104875;1269;97964;-78
2023/05/03 11:23:27;;;;;;;3.80;1.50;;;;;;;13.98;44.63;101660.23;104756;1271;97858;-77
2023/05/03 11:26:13;;;;;;;4.20;1.80;;;;;;;14.05;44.32;101662.61;105789;1269;97962;-78
2023/05/03 11:28:59;;;;;;;3.10;1.60;;;;;;;13.99;42.99;101666.23;104907;1269;101341;-78
2023/05/03 11:31:45;;;;;;;2.50;1.60;;;;;;;14.00;43.77;101661.50;104865;1270;99077;-79
2023/05/03 11:34:30;;;;;;;3.20;1.50;;;;;;;13.97;43.53;101664.68;104818;1270;99278;-78
2023/05/03 11:37:16;;;;;;;5.20;2.20;;;;;;;13.78;43.63;101672.13;104521;1266;97957;-76
2023/05/03 11:40:03;;;;;;;6.00;2.30;;;;;;;13.62;43.59;101671.98;104612;1271;99841;-82
2023/05/03 11:42:49;;;;;;;2.30;1.60;;;;;;;13.53;43.53;101673.54;105426;1271;101335;-80
2023/05/03 11:45:42;;;;;;;3.50;1.60;;;;;;;13.55;44.02;101670.26;104932;1268;99842;-80
2023/05/03 11:48:31;;;;;;;3.80;1.40;;;;;;;13.70;44.14;101668.14;106746;1262;97854;-80
2023/05/03 11:51:21;;;;;;;3.20;1.50;;;;;;;13.92;45.02;101668.16;106739;1266;97674;-77
2023/05/03 11:54:08;;;;;;;3.00;1.50;;;;;;;14.14;44.13;101668.41;104901;1272;97931;-80
2023/05/03 11:56:56;;;;;;;4.10;2.40;;;;;;;14.22;43.72;101674.56;104689;1271;101342;-78
2023/05/03 11:59:43;;;;;;;3.00;1.50;;;;;;;14.07;42.47;101679.64;104553;1272;100707;-78
2023/05/03 12:02:29;;;;;;;4.20;1.50;;;;;;;13.98;42.96;101674.67;104501;1272;97975;-78
2023/05/03 12:05:14;;;;;;;3.40;1.90;;;;;;;14.07;43.33;101667.49;106356;1261;99225;-78
2023/05/03 12:08:00;;;;;;;3.60;1.70;;;;;;;14.17;43.88;101667.35;104674;1271;97791;-79
2023/05/03 12:10:47;;;;;;;4.40;1.60;;;;;;;14.27;43.36;101666.60;104626;1269;102229;-79
2023/05/03 12:13:35;;;;;;;3.10;1.40;;;;;;;14.26;42.82;101668.16;104650;1265;99155;-78
2023/05/03 12:16:21;;;;;;;4.70;1.60;;;;;;;14.27;43.18;101662.09;104681;1284;98637;-79
2023/05/03 12:19:07;;;;;;;2.50;1.50;;;;;;;14.36;42.83;101657.27;104602;1268;98190;-77
2023/05/03 12:21:53;;;;;;;2.60;1.60;;;;;;;14.53;42.72;101658.45;104490;1271;98491;-79
2023/05/03 12:24:38;;;;;;;5.90;2.00;;;;;;;14.64;42.49;101661.35;104520;1266;102622;-77
2023/05/03 12:27:23;;;;;;;3.10;1.30;;;;;;;14.61;41.34;101662.06;104614;1268;99128;-77
2023/05/03 12:30:10;;;;;;;4.70;1.90;;;;;;;14.47;40.73;101661.89;104615;1268;99378;-77
2023/05/03 12:32:55;;;;;;;3.60;1.60;;;;;;;14.42;41.13;101662.63;104593;1267;97974;-78
2023/05/03 12:35:41;;;;;;;3.60;1.80;;;;;;;14.50;41.58;101660.41;104615;1267;100855;-79
2023/05/03 12:38:26;;;;;;;5.50;1.70;;;;;;;14.59;41.19;101655.84;104603;1267;102670;-77
2023/05/03 12:41:14;;;;;;;2.20;1.40;;;;;;;14.72;41.14;101645.85;104579;1267;99221;-78
2023/05/03 12:44:01;;;;;;;4.20;1.50;;;;;;;14.86;41.31;101650.67;104790;1270;98485;-78
2023/05/03 12:46:48;;;;;;;2.50;1.40;;;;;;;14.97;40.75;101650.63;104664;1266;99475;-78
2023/05/03 12:49:34;;;;;;;5.30;2.20;;;;;;;15.01;40.55;101647.87;104819;1270;98508;-77